Time;durP1;ratioP1;P1;durP2;ratioP2;P2;SDS_P1;SDS_P2;PMS_P1;PMS_P2;Temp;Humidity;BMP_temperature;BMP_pressure;BME280_temperature;BME280_humidity;BME280_pressure;Samples;Min_cycle;Max_cycle;Signal;HPM_P1;HPM_P2
2022/01/30 00:01:28;;;;;;;9.00;2.38;;;;;;;8.07;64.75;102127.94;5039629;28;20075;-77
2022/01/30 00:03:54;;;;;;;13.23;2.47;;;;;;;7.64;64.56;102124.84;5046192;28;20111;-78
2022/01/30 00:06:20;;;;;;;13.60;3.20;;;;;;;7.93;63.74;102135.56;5040716;28;20056;-77
2022/01/30 00:08:46;;;;;;;13.07;2.95;;;;;;;7.91;63.43;102128.63;5032836;28;20414;-78
2022/01/30 00:11:17;;;;;;;12.98;2.50;;;;;;;7.98;63.34;102133.88;5033841;28;20531;-77
2022/01/30 00:13:43;;;;;;;15.55;2.60;;;;;;;7.97;62.74;102139.06;5034265;28;20115;-78
2022/01/30 00:16:10;;;;;;;14.93;2.92;;;;;;;7.89;62.87;102140.66;5046432;28;20175;-78
2022/01/30 00:23:32;;;;;;;9.35;2.38;;;;;;;7.99;62.57;102151.16;5034464;28;20109;-78
2022/01/30 00:25:58;;;;;;;7.22;2.40;;;;;;;7.77;63.86;102159.50;5038338;28;20513;-78
2022/01/30 00:28:26;;;;;;;13.48;2.10;;;;;;;7.79;62.44;102167.28;5042340;28;20045;-77
2022/01/30 00:30:53;;;;;;;10.40;2.33;;;;;;;7.95;62.55;102153.66;5034957;28;20172;-78
2022/01/30 00:33:18;;;;;;;9.05;2.70;;;;;;;7.70;63.81;102163.72;5037178;28;20045;-77
2022/01/30 00:35:44;;;;;;;17.40;3.90;;;;;;;7.64;63.61;102165.38;5033428;28;20017;-77
2022/01/30 00:38:15;;;;;;;10.68;2.63;;;;;;;7.77;61.95;102159.50;5042502;28;20032;-77
2022/01/30 00:40:42;;;;;;;14.25;2.50;;;;;;;7.56;63.19;102175.59;5028682;28;20033;-77
2022/01/30 00:43:08;;;;;;;18.10;3.03;;;;;;;7.67;62.89;102168.00;5033337;28;20041;-78
2022/01/30 00:45:34;;;;;;;18.13;2.85;;;;;;;7.57;62.16;102163.53;5036984;28;20429;-77
2022/01/30 00:47:59;;;;;;;11.75;2.58;;;;;;;7.93;61.34;102161.44;5032408;28;20040;-77
2022/01/30 00:50:25;;;;;;;10.32;2.15;;;;;;;7.82;62.33;102170.75;5034927;28;20021;-78
2022/01/30 00:52:54;;;;;;;12.90;2.42;;;;;;;7.71;61.82;102182.69;5035226;28;20120;-77
2022/01/30 00:55:24;;;;;;;10.00;2.03;;;;;;;7.65;62.13;102170.53;5031235;28;20032;-78
2022/01/30 00:57:50;;;;;;;14.27;3.03;;;;;;;7.68;61.92;102175.75;5030669;28;20036;-78
2022/01/30 01:00:17;;;;;;;9.88;1.98;;;;;;;7.83;62.26;102169.91;5029925;28;20041;-77
2022/01/30 01:02:44;;;;;;;11.25;2.60;;;;;;;7.68;62.14;102169.72;5047043;28;20052;-77
2022/01/30 01:05:10;;;;;;;15.18;2.25;;;;;;;7.62;61.95;102173.09;5034940;28;20028;-77
2022/01/30 01:07:39;;;;;;;10.23;2.00;;;;;;;7.57;62.55;102177.34;5038882;28;20116;-78
2022/01/30 01:24:03;;;;;;;8.07;2.03;;;;;;;7.32;63.20;102171.78;5036492;28;20036;-77
2022/01/30 01:26:05;;;;;;;12.25;2.80;;;;;;;7.43;62.21;102184.03;5035122;28;20047;-77
2022/01/30 01:28:31;;;;;;;11.18;1.88;;;;;;;7.25;61.69;102185.47;5033523;28;20037;-77
2022/01/30 01:30:57;;;;;;;12.23;2.53;;;;;;;7.19;62.40;102191.44;5034036;28;20036;-77
2022/01/30 01:33:27;;;;;;;12.27;2.47;;;;;;;7.18;61.56;102187.09;5038439;28;20029;-77
2022/01/30 01:35:52;;;;;;;5.40;2.63;;;;;;;7.22;63.64;102186.31;5038638;28;20033;-77
2022/01/30 01:38:19;;;;;;;8.93;2.50;;;;;;;7.33;61.97;102183.88;5037187;28;20074;-77
2022/01/30 01:40:53;;;;;;;9.63;2.40;;;;;;;7.31;61.24;102180.41;5037569;28;20491;-77
2022/01/30 01:43:19;;;;;;;12.88;2.67;;;;;;;7.16;62.34;102185.34;5033484;28;20043;-77
2022/01/30 01:45:48;;;;;;;12.35;2.15;;;;;;;7.11;61.91;102200.75;5032218;28;20041;-77
2022/01/30 01:48:14;;;;;;;12.82;3.00;;;;;;;7.05;62.63;102208.41;5032440;28;20060;-77
2022/01/30 01:50:51;;;;;;;16.67;3.45;;;;;;;7.20;62.01;102187.97;5037499;28;20025;-77
2022/01/30 01:53:17;;;;;;;16.13;2.95;;;;;;;7.03;63.92;102187.72;5043848;28;20029;-77
2022/01/30 01:55:43;;;;;;;11.93;2.75;;;;;;;7.35;60.16;102182.16;5036307;28;20033;-77
2022/01/30 01:58:09;;;;;;;14.07;2.60;;;;;;;7.32;61.54;102182.13;5032419;28;20521;-77
2022/01/30 02:00:36;;;;;;;8.75;1.83;;;;;;;7.25;60.90;102185.47;5032113;28;20127;-77
2022/01/30 02:03:03;;;;;;;10.30;2.60;;;;;;;6.92;62.37;102193.56;5044244;28;20049;-77
2022/01/30 02:05:33;;;;;;;17.55;2.05;;;;;;;7.11;61.73;102190.41;5037776;28;20497;-77
2022/01/30 02:27:41;;;;;;;12.10;2.30;;;;;;;6.80;63.61;102196.81;5030023;28;20060;-77
2022/01/30 02:30:15;;;;;;;16.58;2.85;;;;;;;6.74;63.36;102201.88;5035680;28;20509;-77
2022/01/30 02:32:41;;;;;;;14.32;2.80;;;;;;;6.95;62.64;102194.50;5037673;28;20021;-77
2022/01/30 02:35:07;;;;;;;14.23;2.72;;;;;;;7.20;61.54;102203.47;5038957;28;20071;-77
2022/01/30 02:37:33;;;;;;;14.20;2.65;;;;;;;6.70;63.35;102210.41;5030295;28;20116;-77
2022/01/30 02:39:58;;;;;;;13.88;2.15;;;;;;;7.07;63.50;102206.72;5030695;28;20040;-77
2022/01/30 02:42:28;;;;;;;12.25;1.95;;;;;;;7.19;61.49;102218.97;5035460;28;20042;-77
2022/01/30 02:44:58;;;;;;;12.23;3.30;;;;;;;7.20;61.78;102208.66;5033368;28;20048;-77
2022/01/30 02:47:41;;;;;;;5.82;1.83;;;;;;;7.06;61.50;102213.63;5031082;28;20025;-77
2022/01/30 02:50:12;;;;;;;12.50;3.00;;;;;;;7.07;61.96;102215.38;5031581;28;20106;-77
2022/01/30 02:52:43;;;;;;;14.48;3.13;;;;;;;7.22;60.69;102216.44;5025590;28;20128;-77
2022/01/30 02:55:11;;;;;;;15.18;2.67;;;;;;;7.07;61.04;102220.53;5032233;28;20038;-77
2022/01/30 02:57:37;;;;;;;16.17;2.40;;;;;;;7.14;60.88;102224.06;5031619;28;20702;-77
2022/01/30 03:00:05;;;;;;;18.17;2.95;;;;;;;6.89;61.69;102232.25;5035446;28;20040;-74
2022/01/30 03:02:31;;;;;;;10.75;2.45;;;;;;;6.85;63.14;102241.66;5035626;28;20160;-78
2022/01/30 03:04:56;;;;;;;10.70;2.67;;;;;;;6.84;61.80;102237.31;5030287;28;20120;-78
2022/01/30 03:07:22;;;;;;;10.10;2.80;;;;;;;6.72;62.18;102244.00;5029831;28;20037;-77
2022/01/30 03:09:48;;;;;;;18.15;3.15;;;;;;;6.85;61.26;102246.81;5035530;28;20040;-77
2022/01/30 03:12:13;;;;;;;13.30;2.53;;;;;;;6.91;62.12;102246.94;5032269;28;20037;-77
2022/01/30 03:14:39;;;;;;;9.63;2.70;;;;;;;6.95;61.27;102250.44;5031158;28;20037;-77
2022/01/30 03:17:04;;;;;;;14.70;2.35;;;;;;;6.55;63.41;102257.47;5039626;28;20026;-78
2022/01/30 03:19:30;;;;;;;10.75;2.53;;;;;;;6.82;61.19;102251.94;5022725;28;20069;-77
2022/01/30 03:21:55;;;;;;;7.22;2.17;;;;;;;6.59;61.85;102245.50;5028287;28;20442;-78
2022/01/30 03:24:21;;;;;;;8.98;2.38;;;;;;;6.86;60.76;102239.94;5029970;28;20040;-77
2022/01/30 03:26:46;;;;;;;17.33;2.17;;;;;;;6.85;60.47;102239.06;5038800;28;20055;-77
2022/01/30 03:29:12;;;;;;;15.40;2.60;;;;;;;6.74;60.75;102237.16;5032856;28;20024;-78
2022/01/30 03:31:40;;;;;;;15.18;2.25;;;;;;;6.69;60.69;102244.81;5027149;28;20068;-77
2022/01/30 03:34:08;;;;;;;9.00;1.65;;;;;;;6.82;60.14;102238.16;5029862;28;20048;-77
2022/01/30 03:36:34;;;;;;;12.15;2.90;;;;;;;6.94;60.30;102238.38;5033578;28;20065;-77
2022/01/30 03:38:59;;;;;;;13.77;2.63;;;;;;;6.48;62.29;102245.25;5037931;28;20045;-77
2022/01/30 03:41:26;;;;;;;13.63;4.32;;;;;;;6.85;61.09;102249.41;5035215;28;20067;-77
2022/01/30 03:43:53;;;;;;;13.60;2.25;;;;;;;6.97;60.18;102243.59;5029272;28;20049;-77
2022/01/30 03:46:20;;;;;;;13.43;2.08;;;;;;;6.88;60.74;102251.16;5032191;28;20486;-77
2022/01/30 03:48:46;;;;;;;13.05;2.17;;;;;;;6.86;59.88;102245.13;5032583;28;20026;-77
2022/01/30 03:51:11;;;;;;;16.05;2.40;;;;;;;6.89;59.69;102248.63;5029027;28;20080;-78
2022/01/30 03:53:37;;;;;;;11.20;2.28;;;;;;;6.94;60.30;102244.41;5030992;28;21413;-77
2022/01/30 03:56:04;;;;;;;12.05;2.75;;;;;;;6.91;61.21;102241.78;5039365;28;20030;-78
2022/01/30 03:58:29;;;;;;;14.60;3.05;;;;;;;6.68;60.74;102253.41;5032442;28;20038;-78
2022/01/30 04:00:55;;;;;;;7.65;2.22;;;;;;;6.76;60.54;102250.94;5027084;28;20036;-77
2022/01/30 04:03:21;;;;;;;11.38;2.42;;;;;;;6.53;61.22;102256.56;5025953;28;20751;-77
2022/01/30 04:05:46;;;;;;;13.55;2.33;;;;;;;6.76;61.11;102253.53;5038770;28;20038;-77
2022/01/30 04:08:12;;;;;;;10.52;2.20;;;;;;;6.86;59.94;102250.28;5029100;28;20036;-78
2022/01/30 04:10:38;;;;;;;13.40;2.15;;;;;;;6.88;60.12;102262.38;5029651;28;20421;-77
2022/01/30 04:13:04;;;;;;;12.55;1.88;;;;;;;6.51;61.45;102273.72;5033513;28;20719;-77
2022/01/30 04:15:30;;;;;;;13.70;2.08;;;;;;;6.31;61.81;102279.28;5030698;28;20117;-78
2022/01/30 04:17:56;;;;;;;8.73;2.20;;;;;;;6.33;62.37;102282.81;5033675;28;20033;-77
2022/01/30 04:20:22;;;;;;;10.75;2.25;;;;;;;6.84;60.08;102272.66;5033507;28;20038;-78
2022/01/30 04:22:47;;;;;;;19.65;4.53;;;;;;;6.87;59.20;102280.44;5037889;28;20029;-75
2022/01/30 04:25:13;;;;;;;10.02;1.88;;;;;;;6.70;60.09;102277.53;5046538;28;20422;-75
2022/01/30 04:27:38;;;;;;;23.42;2.88;;;;;;;6.90;60.35;102276.19;5044802;28;20037;-75
2022/01/30 04:30:05;;;;;;;17.95;2.83;;;;;;;6.58;61.17;102290.22;5031834;28;20037;-75
2022/01/30 04:32:33;;;;;;;10.10;2.55;;;;;;;6.60;60.80;102282.50;5031415;28;20033;-75
2022/01/30 04:35:01;;;;;;;16.30;2.67;;;;;;;6.63;60.64;102283.44;5035154;28;20045;-75
2022/01/30 04:38:15;;;;;;;11.63;2.40;;;;;;;6.76;59.31;102289.69;5043315;28;20508;-75
2022/01/30 04:59:07;;;;;;;10.55;1.90;;;;;;;6.72;59.57;102314.63;5025535;28;20044;-75
2022/01/30 05:07:27;;;;;;;10.63;2.30;;;;;;;6.77;59.32;102328.47;5039921;28;20122;-75
2022/01/30 05:09:41;;;;;;;10.90;2.17;;;;;;;6.64;60.19;102336.81;5039155;28;20040;-75
2022/01/30 05:12:07;;;;;;;7.60;2.53;;;;;;;6.26;61.01;102327.38;5031595;28;20406;-75
2022/01/30 05:14:35;;;;;;;13.55;2.67;;;;;;;6.63;60.36;102334.22;5012530;28;20040;-75
2022/01/30 05:17:03;;;;;;;13.82;2.38;;;;;;;6.50;61.18;102336.53;5038679;28;20536;-75
2022/01/30 05:19:30;;;;;;;12.60;2.63;;;;;;;6.06;62.92;102331.22;5035008;28;20041;-75
2022/01/30 05:21:56;;;;;;;17.23;2.63;;;;;;;6.61;60.48;102325.53;5038829;28;20540;-75
2022/01/30 05:24:22;;;;;;;8.95;2.28;;;;;;;6.31;61.28;102325.75;5028575;28;20037;-75
2022/01/30 05:26:48;;;;;;;11.52;3.20;;;;;;;6.72;60.38;102332.69;5028688;28;20034;-75
2022/01/30 05:29:15;;;;;;;8.43;2.17;;;;;;;6.82;60.23;102333.72;5036724;28;20063;-75
2022/01/30 05:31:41;;;;;;;8.85;2.83;;;;;;;6.95;59.39;102323.66;5031972;28;20033;-75
2022/01/30 05:34:07;;;;;;;10.63;2.78;;;;;;;6.73;60.54;102347.31;5039136;28;20037;-75
2022/01/30 05:36:33;;;;;;;14.35;2.13;;;;;;;6.69;61.53;102347.25;5044960;28;20065;-75
2022/01/30 05:39:00;;;;;;;9.98;2.28;;;;;;;6.89;59.63;102348.50;5034878;28;20107;-75
2022/01/30 05:41:27;;;;;;;16.80;2.90;;;;;;;7.02;59.62;102338.41;5040460;28;20033;-75
2022/01/30 05:43:57;;;;;;;14.55;2.72;;;;;;;6.89;60.42;102346.78;5046335;28;20075;-75
2022/01/30 05:46:37;;;;;;;16.80;2.42;;;;;;;6.73;60.02;102339.56;5024519;28;20063;-74
2022/01/30 05:49:03;;;;;;;14.77;3.13;;;;;;;6.67;60.76;102346.31;5032995;28;20037;-75
2022/01/30 05:51:29;;;;;;;12.77;2.17;;;;;;;6.86;60.35;102341.56;5029085;28;20146;-75
2022/01/30 05:53:55;;;;;;;8.05;1.90;;;;;;;6.83;60.35;102346.66;5029285;28;20061;-75
2022/01/30 05:56:21;;;;;;;14.50;2.78;;;;;;;6.93;59.97;102347.72;5039152;28;20029;-75
2022/01/30 05:58:47;;;;;;;9.73;2.08;;;;;;;6.87;61.01;102345.03;5033060;28;20099;-75
2022/01/30 06:01:12;;;;;;;12.13;2.15;;;;;;;6.99;59.72;102345.22;5039854;28;20121;-75
2022/01/30 06:03:38;;;;;;;14.50;2.80;;;;;;;6.94;59.45;102345.16;5039664;28;20498;-75
2022/01/30 06:06:03;;;;;;;11.05;2.30;;;;;;;6.96;60.28;102351.22;5030384;28;20037;-75
2022/01/30 06:09:00;;;;;;;13.95;2.05;;;;;;;6.83;59.93;102351.84;5040759;28;20029;-75
2022/01/30 06:11:26;;;;;;;9.43;1.98;;;;;;;6.71;59.94;102356.75;5035611;28;20448;-75
2022/01/30 06:13:51;;;;;;;7.00;1.85;;;;;;;6.86;60.12;102367.41;5038792;28;20041;-75
2022/01/30 06:16:17;;;;;;;13.07;3.10;;;;;;;6.21;62.71;102378.00;5039386;28;20375;-75
2022/01/30 06:18:43;;;;;;;13.77;2.35;;;;;;;6.62;61.40;102373.78;5040886;28;20060;-75
2022/01/30 06:21:09;;;;;;;9.43;1.58;;;;;;;6.74;61.03;102377.47;5032107;28;20508;-75
2022/01/30 06:23:36;;;;;;;9.15;2.00;;;;;;;6.81;60.45;102381.91;5029443;28;20257;-75
2022/01/30 06:26:02;;;;;;;9.35;1.98;;;;;;;6.77;60.18;102387.00;5033563;28;20026;-75
2022/01/30 06:28:28;;;;;;;15.85;2.30;;;;;;;6.68;60.21;102387.69;5033633;28;20502;-74
2022/01/30 06:30:53;;;;;;;12.73;2.28;;;;;;;6.58;60.66;102401.22;5043542;28;20037;-75
2022/01/30 06:33:18;;;;;;;10.10;3.50;;;;;;;6.75;59.61;102396.44;5029144;28;20510;-75
2022/01/30 06:35:44;;;;;;;17.48;2.47;;;;;;;6.61;59.13;102414.19;5030485;28;20513;-75
2022/01/30 06:38:09;;;;;;;9.27;2.60;;;;;;;6.29;60.64;102410.00;5034748;28;20087;-74
2022/01/30 06:40:35;;;;;;;6.20;2.17;;;;;;;6.66;59.86;102402.28;5035296;28;20077;-75
2022/01/30 06:43:01;;;;;;;8.82;1.92;;;;;;;6.63;59.84;102401.34;5034289;28;20111;-75
2022/01/30 06:45:27;;;;;;;8.13;2.10;;;;;;;6.41;60.10;102411.16;5033943;28;20044;-75
2022/01/30 06:47:52;;;;;;;12.02;2.28;;;;;;;6.69;59.84;102406.63;5028271;28;20041;-75
2022/01/30 06:50:18;;;;;;;10.73;1.83;;;;;;;6.46;60.07;102406.09;5034641;28;20471;-75
2022/01/30 06:52:44;;;;;;;6.05;1.75;;;;;;;6.41;59.71;102411.16;5032635;28;20034;-75
2022/01/30 06:55:10;;;;;;;10.00;1.85;;;;;;;6.46;59.26;102409.56;5031969;28;20508;-75
2022/01/30 06:57:42;;;;;;;12.40;2.40;;;;;;;6.57;60.08;102425.31;5030540;28;20033;-75
2022/01/30 07:00:08;;;;;;;16.08;4.18;;;;;;;6.54;58.43;102410.63;5036460;28;20040;-75
2022/01/30 07:02:33;;;;;;;9.73;2.28;;;;;;;6.68;57.72;102410.06;5029792;28;20035;-74
2022/01/30 07:04:59;;;;;;;7.32;2.05;;;;;;;6.45;59.23;102425.03;5030906;28;20033;-75
2022/01/30 07:07:25;;;;;;;11.27;1.77;;;;;;;6.52;58.40;102429.50;5033830;28;20037;-75
2022/01/30 07:09:50;;;;;;;13.05;2.15;;;;;;;6.46;59.20;102434.50;5043343;28;20486;-75
2022/01/30 07:12:16;;;;;;;10.40;3.38;;;;;;;6.62;58.81;102436.63;5035631;28;20091;-75
2022/01/30 07:14:42;;;;;;;8.30;1.75;;;;;;;6.43;58.95;102435.28;5030904;28;20074;-76
2022/01/30 07:17:07;;;;;;;7.55;1.85;;;;;;;6.52;57.55;102434.66;5032418;28;20044;-75
2022/01/30 07:19:32;;;;;;;16.25;2.50;;;;;;;6.63;58.41;102438.38;5036366;28;20038;-75
2022/01/30 07:21:58;;;;;;;8.48;2.10;;;;;;;6.77;58.17;102443.81;5032706;28;20026;-75
2022/01/30 07:24:23;;;;;;;10.20;1.75;;;;;;;6.75;59.14;102443.75;5036918;28;20033;-75
2022/01/30 07:26:49;;;;;;;12.93;2.00;;;;;;;6.57;58.86;102445.97;5037478;28;20022;-75
2022/01/30 07:29:14;;;;;;;9.73;1.83;;;;;;;6.57;59.53;102443.41;5038867;28;20200;-75
2022/01/30 07:31:40;;;;;;;13.27;3.10;;;;;;;6.32;59.44;102439.34;5033147;28;20402;-75
2022/01/30 07:34:05;;;;;;;6.60;1.60;;;;;;;6.55;59.31;102445.06;5035911;28;20490;-75
2022/01/30 07:36:34;;;;;;;12.60;2.03;;;;;;;6.67;58.90;102447.03;5032213;28;20034;-75
2022/01/30 07:39:00;;;;;;;13.93;2.72;;;;;;;6.40;60.12;102448.13;5056275;28;20103;-75
2022/01/30 07:41:26;;;;;;;16.98;2.30;;;;;;;6.70;58.64;102439.34;5041059;28;20052;-75
2022/01/30 07:43:52;;;;;;;9.73;1.73;;;;;;;6.52;59.09;102442.41;5031353;28;20045;-75
2022/01/30 07:46:18;;;;;;;11.95;2.17;;;;;;;6.53;60.13;102447.63;5034897;28;20041;-75
2022/01/30 07:48:43;;;;;;;12.90;2.58;;;;;;;6.60;58.55;102438.31;5044080;28;20459;-76
2022/01/30 07:51:09;;;;;;;6.60;1.83;;;;;;;6.68;59.36;102441.03;5041679;28;20052;-75
2022/01/30 07:53:35;;;;;;;10.20;2.00;;;;;;;6.40;59.26;102435.22;5035047;28;20041;-76
2022/01/30 07:56:00;;;;;;;5.88;1.85;;;;;;;6.32;60.42;102439.34;5039365;28;20156;-75
2022/01/30 07:58:26;;;;;;;11.05;2.20;;;;;;;6.69;59.71;102445.38;5039418;28;20382;-75
2022/01/30 08:00:51;;;;;;;7.97;1.77;;;;;;;6.31;59.51;102454.78;5033294;28;20571;-75
2022/01/30 08:03:17;;;;;;;17.08;2.05;;;;;;;6.36;59.23;102454.09;5040319;28;20029;-75
2022/01/30 08:05:42;;;;;;;12.32;2.08;;;;;;;6.56;58.95;102454.56;5042060;28;20045;-76
2022/01/30 08:08:08;;;;;;;13.90;2.83;;;;;;;6.61;60.10;102452.06;5034749;28;20397;-75
2022/01/30 08:10:34;;;;;;;7.80;2.72;;;;;;;6.54;60.42;102453.66;5039938;28;20036;-76
2022/01/30 08:13:00;;;;;;;9.50;2.97;;;;;;;6.66;58.69;102458.22;5037826;28;20372;-76
2022/01/30 08:15:25;;;;;;;10.45;2.13;;;;;;;6.71;58.43;102466.94;5033376;28;20045;-76
2022/01/30 08:17:51;;;;;;;7.90;2.05;;;;;;;6.79;58.80;102470.53;5037688;28;20032;-76
2022/01/30 08:20:16;;;;;;;10.40;2.33;;;;;;;6.22;61.06;102472.63;5034772;28;20078;-75
2022/01/30 08:22:47;;;;;;;8.77;2.20;;;;;;;6.56;60.14;102480.38;5031381;28;20095;-75
2022/01/30 08:25:13;;;;;;;11.82;1.58;;;;;;;6.44;59.77;102480.94;5032716;28;20037;-75
2022/01/30 08:27:39;;;;;;;11.93;2.15;;;;;;;6.37;60.32;102480.75;5035055;28;20030;-76
2022/01/30 08:30:05;;;;;;;12.63;3.05;;;;;;;5.98;60.64;102471.19;5033752;28;20041;-76
2022/01/30 08:32:31;;;;;;;13.00;3.05;;;;;;;6.41;60.90;102479.97;5039095;28;20035;-75
2022/01/30 08:34:57;;;;;;;6.70;1.38;;;;;;;6.15;59.66;102476.78;5033743;28;20041;-75
2022/01/30 08:37:22;;;;;;;9.98;2.20;;;;;;;6.24;60.61;102481.31;5037943;28;20057;-75
2022/01/30 08:39:48;;;;;;;9.88;2.05;;;;;;;6.51;59.99;102482.84;5039342;28;20115;-75
2022/01/30 08:42:13;;;;;;;12.65;1.77;;;;;;;6.16;59.84;102482.84;5034822;28;20041;-75
2022/01/30 08:44:39;;;;;;;16.13;2.42;;;;;;;6.64;59.36;102486.56;5027852;28;20033;-76
2022/01/30 08:47:05;;;;;;;10.57;1.95;;;;;;;6.83;59.27;102499.06;5012101;28;20091;-76
2022/01/30 08:49:30;;;;;;;10.00;1.95;;;;;;;6.72;59.11;102504.84;5042405;28;20037;-76
2022/01/30 08:51:56;;;;;;;7.30;1.85;;;;;;;6.66;59.46;102504.69;5032772;28;20498;-75
2022/01/30 08:54:21;;;;;;;8.98;1.73;;;;;;;6.66;59.78;102508.16;5032572;28;20041;-75
2022/01/30 08:56:48;;;;;;;9.48;1.90;;;;;;;6.39;60.62;102508.34;5034746;28;20033;-76
2022/01/30 08:59:13;;;;;;;10.20;2.10;;;;;;;6.50;60.38;102506.03;5042255;28;20104;-75
2022/01/30 09:01:40;;;;;;;8.55;1.67;;;;;;;6.17;60.24;102516.41;5037608;28;20534;-75
2022/01/30 09:04:05;;;;;;;10.88;1.73;;;;;;;6.53;58.61;102509.56;5040034;28;20041;-76
2022/01/30 09:06:31;;;;;;;8.63;1.90;;;;;;;6.59;58.26;102511.44;5036920;28;20398;-76
2022/01/30 09:08:59;;;;;;;11.98;2.28;;;;;;;6.29;58.46;102516.69;5038697;28;20095;-75
2022/01/30 09:11:25;;;;;;;8.18;1.70;;;;;;;6.70;58.99;102521.97;5035424;28;20025;-76
2022/01/30 09:13:50;;;;;;;7.80;2.67;;;;;;;6.30;59.95;102521.03;5035894;28;20037;-75
2022/01/30 09:16:16;;;;;;;8.07;2.22;;;;;;;6.52;58.63;102514.69;5041720;28;20048;-75
2022/01/30 09:18:41;;;;;;;9.63;1.98;;;;;;;6.28;60.43;102526.97;5044617;28;20247;-76
2022/01/30 09:21:07;;;;;;;13.27;2.03;;;;;;;6.51;59.38;102523.28;5030301;28;20499;-75
2022/01/30 09:23:33;;;;;;;8.45;1.80;;;;;;;6.77;58.13;102523.88;5039981;28;20048;-75
2022/01/30 09:25:59;;;;;;;9.95;2.25;;;;;;;6.25;58.47;102534.63;5035731;28;20399;-75
2022/01/30 09:28:24;;;;;;;12.27;1.77;;;;;;;6.70;58.01;102522.88;5034089;28;20151;-75
2022/01/30 09:30:50;;;;;;;8.38;2.58;;;;;;;6.62;58.63;102520.94;5034686;28;20135;-75
2022/01/30 09:33:15;;;;;;;11.98;1.95;;;;;;;6.47;58.62;102517.19;5030372;28;20530;-76
2022/01/30 09:35:42;;;;;;;9.38;2.20;;;;;;;6.51;58.03;102513.81;5039687;28;20388;-76
2022/01/30 09:38:07;;;;;;;11.73;1.95;;;;;;;6.65;57.68;102508.09;5037745;28;20029;-76
2022/01/30 09:40:33;;;;;;;8.52;1.90;;;;;;;6.40;58.83;102506.63;5034794;28;20405;-76
2022/01/30 09:42:59;;;;;;;10.65;2.05;;;;;;;6.56;57.70;102506.19;5029788;28;20088;-75
2022/01/30 09:45:25;;;;;;;11.20;1.75;;;;;;;6.82;58.31;102496.44;5032591;28;20033;-76
2022/01/30 09:47:51;;;;;;;9.30;2.05;;;;;;;6.43;58.82;102492.09;5034593;28;20025;-78
2022/01/30 09:50:17;;;;;;;12.57;2.10;;;;;;;6.87;57.46;102481.94;5031546;28;20363;-78
2022/01/30 09:52:44;;;;;;;12.52;2.15;;;;;;;6.89;57.92;102482.81;5032733;28;20037;-79
2022/01/30 09:55:11;;;;;;;12.38;3.03;;;;;;;6.85;57.96;102481.00;5036439;28;20033;-78
2022/01/30 09:57:37;;;;;;;7.32;2.65;;;;;;;6.97;56.74;102471.81;5032348;28;20107;-78
2022/01/30 10:00:06;;;;;;;7.43;2.13;;;;;;;6.87;57.10;102482.78;5031144;28;20060;-78
2022/01/30 10:02:32;;;;;;;7.32;1.95;;;;;;;6.82;56.77;102483.53;5036169;28;20436;-78
2022/01/30 10:04:58;;;;;;;12.15;2.05;;;;;;;6.88;57.58;102492.28;5036507;28;20033;-78
2022/01/30 10:11:04;;;;;;;9.48;2.17;;;;;;;6.82;56.66;102489.56;5025465;28;20091;-78
2022/01/30 10:13:31;;;;;;;8.25;1.90;;;;;;;7.04;56.79;102489.19;5036038;28;20052;-78
2022/01/30 10:16:03;;;;;;;17.23;2.08;;;;;;;7.06;55.67;102490.09;5029580;28;20038;-78
2022/01/30 10:18:33;;;;;;;13.25;2.60;;;;;;;6.70;57.79;102489.28;5035829;28;20088;-78
2022/01/30 10:21:00;;;;;;;16.65;3.08;;;;;;;6.94;56.84;102494.13;5035879;28;20045;-78
2022/01/30 10:23:33;;;;;;;13.82;1.92;;;;;;;7.11;55.73;102487.59;5037737;28;20028;-78
2022/01/30 10:26:01;;;;;;;10.73;2.10;;;;;;;6.70;56.72;102485.84;5035614;28;20033;-78
2022/01/30 10:28:31;;;;;;;6.38;1.83;;;;;;;6.86;56.52;102503.44;5028303;28;20080;-78
2022/01/30 10:31:01;;;;;;;12.13;1.90;;;;;;;6.73;55.02;102496.22;5032675;28;20054;-78
2022/01/30 10:33:47;;;;;;;11.20;2.80;;;;;;;6.72;55.21;102494.50;5052836;28;20037;-78
2022/01/30 10:36:30;;;;;;;10.13;2.50;;;;;;;6.85;55.30;102502.53;5038814;28;20521;-78
2022/01/30 10:39:01;;;;;;;11.00;2.70;;;;;;;6.94;54.73;102491.53;5030993;28;20017;-78
2022/01/30 10:41:35;;;;;;;8.80;2.35;;;;;;;6.88;54.03;102497.44;5035921;28;20036;-79
2022/01/30 10:44:02;;;;;;;10.17;2.03;;;;;;;6.56;55.58;102496.75;5028953;28;20041;-79
2022/01/30 10:46:54;;;;;;;17.40;1.90;;;;;;;6.57;54.81;102501.03;5031189;28;20029;-78
2022/01/30 10:49:21;;;;;;;10.80;2.33;;;;;;;6.74;54.68;102496.28;5028228;28;20425;-78
2022/01/30 10:51:55;;;;;;;7.20;2.45;;;;;;;6.85;54.34;102504.25;5033330;28;20433;-78
2022/01/30 10:54:25;;;;;;;12.30;1.85;;;;;;;6.76;54.07;102489.44;5026165;28;20047;-78
2022/01/30 10:57:06;;;;;;;16.42;3.00;;;;;;;6.93;54.62;102493.25;5035366;28;20022;-78
2022/01/30 10:59:33;;;;;;;9.77;1.67;;;;;;;6.94;54.16;102482.06;5032324;28;20018;-79
2022/01/30 11:02:18;;;;;;;18.17;2.25;;;;;;;6.65;54.15;102479.69;5037074;28;20052;-78
2022/01/30 11:04:47;;;;;;;9.68;1.92;;;;;;;6.72;55.00;102476.44;5029186;28;20053;-78
2022/01/30 11:07:20;;;;;;;14.65;2.97;;;;;;;6.80;54.13;102483.50;5024639;28;20036;-78
2022/01/30 11:10:01;;;;;;;14.95;2.63;;;;;;;6.69;54.37;102495.31;5035402;28;20045;-78
2022/01/30 11:12:39;;;;;;;12.07;1.90;;;;;;;6.99;54.73;102480.44;5025342;28;20120;-78
2022/01/30 11:15:17;;;;;;;11.57;2.10;;;;;;;7.01;53.38;102480.50;5033561;28;20041;-78
2022/01/30 11:17:44;;;;;;;12.90;2.90;;;;;;;7.18;53.79;102483.41;5030008;28;20074;-78
2022/01/30 11:20:13;;;;;;;17.98;2.33;;;;;;;7.16;52.65;102478.22;5043076;28;20067;-78
2022/01/30 11:22:41;;;;;;;5.05;1.70;;;;;;;7.27;52.75;102476.72;5039553;28;20133;-79
2022/01/30 11:25:08;;;;;;;11.10;1.88;;;;;;;7.22;53.10;102464.56;5036080;28;20025;-78
2022/01/30 11:27:34;;;;;;;10.30;2.05;;;;;;;7.17;53.17;102469.63;5033330;28;20112;-78
2022/01/30 11:30:01;;;;;;;7.20;1.85;;;;;;;7.39;53.71;102469.22;5036071;28;20383;-78
2022/01/30 11:32:27;;;;;;;20.27;3.40;;;;;;;7.24;53.22;102476.66;5038702;28;20485;-79
2022/01/30 11:34:55;;;;;;;16.05;2.75;;;;;;;7.00;53.87;102478.75;5045412;28;20040;-78
2022/01/30 11:37:27;;;;;;;16.67;3.33;;;;;;;7.14;53.45;102485.94;5034911;28;20124;-78
2022/01/30 11:39:54;;;;;;;11.80;2.70;;;;;;;6.82;54.94;102481.81;5035466;28;20178;-78
2022/01/30 11:42:25;;;;;;;10.35;2.40;;;;;;;6.83;53.14;102470.66;5034516;28;20040;-78
2022/01/30 11:45:12;;;;;;;12.10;2.20;;;;;;;6.99;53.08;102464.94;5040485;28;20021;-78
2022/01/30 11:48:10;;;;;;;14.32;2.25;;;;;;;7.14;52.99;102467.84;5040458;28;20408;-79
2022/01/30 11:50:35;;;;;;;9.95;2.33;;;;;;;7.26;52.56;102466.34;5043282;28;20033;-78
2022/01/30 11:53:05;;;;;;;16.92;2.95;;;;;;;6.87;53.59;102479.34;5036230;28;20030;-78
2022/01/30 11:55:50;;;;;;;12.10;2.83;;;;;;;7.24;52.88;102471.50;5039019;28;20041;-79
2022/01/30 11:58:43;;;;;;;13.85;4.57;;;;;;;6.97;52.79;102458.88;5030725;28;20048;-79
2022/01/30 12:01:26;;;;;;;9.32;2.28;;;;;;;6.76;49.97;102470.47;5045094;28;20033;-78
2022/01/30 12:04:00;;;;;;;15.90;2.88;;;;;;;6.95;49.51;102464.88;5045734;28;20040;-79
2022/01/30 12:06:25;;;;;;;14.65;2.17;;;;;;;6.96;48.60;102475.22;5038133;28;20036;-78
2022/01/30 12:08:52;;;;;;;9.23;3.35;;;;;;;6.86;50.84;102475.00;5035739;28;20017;-78
2022/01/30 12:11:38;;;;;;;9.23;2.75;;;;;;;6.97;48.65;102478.69;5035424;28;20048;-79
2022/01/30 12:14:18;;;;;;;22.40;3.60;;;;;;;6.82;48.90;102476.66;5039640;28;20041;-78
2022/01/30 12:16:46;;;;;;;17.67;2.40;;;;;;;6.90;48.02;102475.09;5042201;28;20076;-79
2022/01/30 12:19:16;;;;;;;7.32;2.35;;;;;;;6.80;48.27;102467.13;5033697;28;20068;-78
2022/01/30 12:21:43;;;;;;;18.80;3.70;;;;;;;7.13;47.67;102460.09;5032601;28;20084;-78
2022/01/30 12:24:24;;;;;;;16.83;3.22;;;;;;;7.27;47.85;102456.06;5037237;28;20516;-78
2022/01/30 12:26:52;;;;;;;17.15;2.97;;;;;;;7.23;48.69;102455.97;5041885;28;20359;-78
2022/01/30 12:29:40;;;;;;;17.60;2.60;;;;;;;7.12;48.94;102458.31;5039704;28;20056;-78
2022/01/30 12:32:22;;;;;;;10.77;2.35;;;;;;;7.03;48.49;102455.56;5035478;28;20076;-78
2022/01/30 12:34:47;;;;;;;15.50;2.95;;;;;;;7.10;49.65;102458.31;5027438;28;20056;-79
2022/01/30 12:37:21;;;;;;;15.43;3.10;;;;;;;7.29;49.50;102461.22;5031663;28;20490;-79